Terminal Aerodrome Forecast
Issued by NWS Cleveland, OH

Home | Current Version | Previous Version | Text Only | Print | Product List | Glossary Off
Versions: 1 2 3 4 5 6 7 8 9 10 11 12 13 14 15 16 17 18 19 20 21 22 23 24 25 26 27

983
FTUS41 KCLE 211453 AAA
TAFCLE
TAF AMD
KCLE 211453Z 2115/2218 36008KT P6SM SCT040 BKN200
     FM220500 14004KT P6SM FEW250
     FM221100 17007KT P6SM BKN090
     FM221300 18008KT 5SM -SHRA VCTS OVC035CB=

USA.gov is the U.S. government's official web portal to all federal, state and local government web resources and services.